Time;durP1;ratioP1;P1;durP2;ratioP2;P2;SDS_P1;SDS_P2;PMS_P1;PMS_P2;Temp;Humidity;BMP_temperature;BMP_pressure;BME280_temperature;BME280_humidity;BME280_pressure;Samples;Min_cycle;Max_cycle;Signal;HPM_P1;HPM_P2
2022/08/04 00:01:47;;;;;;;9.38;2.58;;;;;;;22.18;75.34;101244.91;4987974;28;20034;-69
2022/08/04 00:04:23;;;;;;;6.72;2.58;;;;;;;22.06;76.20;101251.09;4992274;28;20080;-69
2022/08/04 00:07:07;;;;;;;5.22;2.33;;;;;;;21.90;77.14;101252.03;4992128;28;20060;-69
2022/08/04 00:09:51;;;;;;;11.05;2.40;;;;;;;21.93;77.30;101250.75;4992427;28;20048;-70
2022/08/04 00:12:18;;;;;;;8.75;2.33;;;;;;;21.76;77.71;101248.25;4992106;28;20072;-70
2022/08/04 00:14:49;;;;;;;11.20;2.35;;;;;;;21.69;78.66;101251.06;4992142;28;20037;-69
2022/08/04 00:17:19;;;;;;;10.38;2.58;;;;;;;21.69;78.71;101252.91;4992133;28;20118;-69
2022/08/04 00:19:47;;;;;;;4.72;2.47;;;;;;;21.75;78.44;101249.25;4992122;28;20026;-69
2022/08/04 00:22:15;;;;;;;5.70;2.20;;;;;;;21.59;79.21;101246.50;4993233;28;20121;-69
2022/08/04 00:24:41;;;;;;;7.22;2.78;;;;;;;21.63;79.49;101249.44;4991918;28;20496;-68
2022/08/04 00:27:08;;;;;;;5.47;2.30;;;;;;;21.71;79.24;101245.56;4992074;28;20030;-69
2022/08/04 00:29:34;;;;;;;7.07;2.33;;;;;;;21.58;79.43;101231.00;4993318;28;20474;-69
2022/08/04 00:32:01;;;;;;;8.48;2.78;;;;;;;21.56;79.78;101231.22;4993225;28;20081;-69
2022/08/04 00:34:28;;;;;;;7.05;2.53;;;;;;;21.62;79.51;101232.84;4993325;28;20437;-69
2022/08/04 00:36:55;;;;;;;7.40;2.50;;;;;;;21.43;80.10;101239.50;4993530;28;20018;-69
2022/08/04 00:39:21;;;;;;;11.38;3.05;;;;;;;21.44;80.94;101232.44;4996767;28;20041;-69
2022/08/04 00:41:55;;;;;;;9.75;2.70;;;;;;;21.36;80.92;101231.81;4996654;28;20022;-69
2022/08/04 00:44:43;;;;;;;12.30;2.80;;;;;;;21.49;80.50;101227.22;4996710;28;20022;-69
2022/08/04 00:47:39;;;;;;;7.55;2.65;;;;;;;21.54;79.97;101220.16;4995265;28;20027;-72
2022/08/04 00:50:08;;;;;;;4.45;2.10;;;;;;;21.59;80.30;101219.41;4995353;28;20109;-73
2022/08/04 00:52:46;;;;;;;7.13;2.53;;;;;;;21.58;79.89;101213.38;4996747;28;20359;-72
2022/08/04 00:55:43;;;;;;;8.35;2.47;;;;;;;21.56;80.53;101223.34;4996517;28;20022;-72
2022/08/04 00:58:35;;;;;;;8.18;2.53;;;;;;;21.49;80.70;101217.50;4996609;28;20049;-72
2022/08/04 01:01:26;;;;;;;6.85;2.67;;;;;;;21.29;81.38;101204.94;4995193;28;20033;-72
2022/08/04 01:04:28;;;;;;;10.07;2.67;;;;;;;21.29;81.96;101204.94;5008839;28;20045;-72
2022/08/04 01:07:21;;;;;;;8.88;2.50;;;;;;;21.25;81.71;101205.66;4995622;28;20037;-72
2022/08/04 01:09:56;;;;;;;5.45;2.78;;;;;;;21.17;82.39;101206.88;4995693;28;20081;-72
2022/08/04 01:12:42;;;;;;;11.73;2.72;;;;;;;21.05;83.22;101203.59;4996865;28;20057;-72
2022/08/04 01:15:39;;;;;;;5.85;2.70;;;;;;;21.23;82.58;101202.47;4995645;28;20232;-72
2022/08/04 01:18:07;;;;;;;9.57;2.80;;;;;;;21.26;82.12;101196.72;4974651;28;20043;-72
2022/08/04 01:20:52;;;;;;;9.90;3.03;;;;;;;21.18;82.99;101192.72;4996587;28;20047;-72
2022/08/04 01:23:50;;;;;;;13.95;3.03;;;;;;;21.21;82.47;101194.06;4996680;28;20026;-78
2022/08/04 01:26:37;;;;;;;7.25;2.88;;;;;;;20.98;83.66;101195.13;5006227;28;20022;-79
2022/08/04 01:29:09;;;;;;;8.18;2.80;;;;;;;21.07;82.97;101196.28;5005066;28;20034;-80
2022/08/04 01:31:41;;;;;;;8.18;3.08;;;;;;;21.03;83.68;101192.53;5006319;28;20116;-76
2022/08/04 01:34:11;;;;;;;9.40;2.80;;;;;;;20.92;84.35;101189.81;5007434;28;20049;-74
2022/08/04 01:36:43;;;;;;;10.45;3.05;;;;;;;21.14;84.00;101194.25;5007788;28;20042;-79
2022/08/04 01:41:55;;;;;;;10.23;3.28;;;;;;;21.04;83.85;101181.00;5005597;28;20037;-74
2022/08/04 01:44:23;;;;;;;8.25;2.80;;;;;;;21.09;83.56;101189.75;4996034;28;20026;-72
2022/08/04 01:46:50;;;;;;;7.90;2.78;;;;;;;21.19;83.50;101195.09;4996900;28;20026;-72
2022/08/04 01:49:18;;;;;;;7.95;2.80;;;;;;;21.01;83.35;101184.94;4996727;28;20018;-72
2022/08/04 01:51:45;;;;;;;7.65;2.80;;;;;;;21.01;83.81;101192.81;4997133;28;20053;-73
2022/08/04 01:54:14;;;;;;;9.50;3.15;;;;;;;20.90;84.38;101193.72;4996682;28;20026;-75
2022/08/04 01:56:41;;;;;;;9.68;2.85;;;;;;;20.96;83.85;101187.50;4996341;28;20026;-72
2022/08/04 01:59:07;;;;;;;6.30;3.10;;;;;;;20.88;84.27;101198.44;4996233;28;20113;-74
2022/08/04 02:01:35;;;;;;;10.18;2.90;;;;;;;20.84;84.25;101186.84;4995205;28;20390;-73
2022/08/04 02:04:00;;;;;;;12.55;3.72;;;;;;;20.88;83.77;101187.91;4996159;28;20476;-73
2022/08/04 02:06:45;;;;;;;10.05;2.90;;;;;;;21.01;83.25;101179.66;4996017;28;20060;-73
2022/08/04 02:09:21;;;;;;;7.38;3.00;;;;;;;21.00;83.24;101177.28;4995796;28;20033;-74
2022/08/04 02:12:03;;;;;;;9.00;2.80;;;;;;;20.99;82.78;101175.69;4995456;28;20026;-74
2022/08/04 02:14:44;;;;;;;12.05;3.30;;;;;;;20.96;83.26;101166.47;4993961;28;20478;-72
2022/08/04 02:17:17;;;;;;;7.10;3.00;;;;;;;20.95;83.27;101168.31;4993797;28;20030;-71
2022/08/04 02:20:14;;;;;;;7.82;2.85;;;;;;;20.81;84.20;101168.94;4995271;28;20041;-72
2022/08/04 02:22:51;;;;;;;11.05;2.85;;;;;;;20.78;83.91;101153.69;4993717;28;20044;-72
2022/08/04 02:25:22;;;;;;;8.45;2.65;;;;;;;20.66;84.38;101151.97;4994788;28;20018;-72
2022/08/04 02:28:05;;;;;;;9.23;2.85;;;;;;;20.78;84.72;101151.06;4994954;28;20034;-72
2022/08/04 02:30:51;;;;;;;7.95;2.55;;;;;;;20.67;84.52;101150.13;4994787;28;20110;-72
2022/08/04 02:33:25;;;;;;;11.10;2.70;;;;;;;20.61;85.22;101146.66;4994651;28;20022;-72
2022/08/04 02:35:56;;;;;;;9.70;3.00;;;;;;;20.90;83.64;101151.69;4993366;28;20026;-72
2022/08/04 02:38:54;;;;;;;10.43;2.80;;;;;;;20.72;84.31;101145.72;4994784;28;20057;-72
2022/08/04 02:41:23;;;;;;;10.50;3.00;;;;;;;20.84;84.10;101144.81;4993411;28;20065;-72
2022/08/04 02:43:48;;;;;;;12.32;2.90;;;;;;;20.85;83.52;101135.88;4994601;28;20026;-74
2022/08/04 02:46:18;;;;;;;9.00;2.92;;;;;;;20.89;84.33;101132.53;4994334;28;20102;-72
2022/08/04 02:48:45;;;;;;;6.78;2.60;;;;;;;20.77;84.08;101139.72;4993334;28;20089;-72
2022/08/04 02:51:12;;;;;;;11.45;3.05;;;;;;;20.95;83.78;101142.03;4993101;28;20022;-72
2022/08/04 02:53:40;;;;;;;8.18;2.70;;;;;;;20.81;84.43;101145.31;4994218;28;20093;-73
2022/08/04 02:56:08;;;;;;;9.18;2.90;;;;;;;20.73;84.93;101138.66;4993113;28;20037;-73
2022/08/04 02:58:34;;;;;;;14.80;3.13;;;;;;;20.77;84.47;101141.56;4994147;28;20076;-72
2022/08/04 03:01:00;;;;;;;8.85;3.05;;;;;;;20.89;84.43;101134.38;4992788;28;20022;-73
2022/08/04 03:04:07;;;;;;;9.70;2.85;;;;;;;20.88;84.21;101130.13;4994200;28;20018;-72
2022/08/04 03:07:09;;;;;;;10.23;3.13;;;;;;;20.88;84.57;101127.50;4975089;28;20104;-71
2022/08/04 03:10:05;;;;;;;11.98;3.00;;;;;;;20.82;84.41;101125.88;4994151;28;20027;-72
2022/08/04 03:12:56;;;;;;;9.07;3.35;;;;;;;20.82;85.16;101129.28;4992783;28;20106;-72
2022/08/04 03:15:54;;;;;;;5.13;2.65;;;;;;;20.87;84.59;101125.94;4994040;28;20033;-72
2022/08/04 03:18:51;;;;;;;12.18;3.10;;;;;;;20.75;85.23;101136.56;4986750;28;20034;-71
2022/08/04 03:21:46;;;;;;;11.25;2.90;;;;;;;20.80;84.81;101133.19;4992613;28;20046;-72
2022/08/04 03:24:58;;;;;;;7.47;3.22;;;;;;;20.80;85.34;101127.94;4993998;28;20526;-72
2022/08/04 03:28:12;;;;;;;7.57;2.70;;;;;;;20.83;85.01;101128.25;4953074;29;20051;-72
2022/08/04 03:31:05;;;;;;;11.95;3.20;;;;;;;20.85;84.67;101131.41;4992785;28;20167;-72
2022/08/04 03:34:09;;;;;;;10.00;2.92;;;;;;;20.92;84.55;101131.25;4993694;28;20134;-73
2022/08/04 03:36:56;;;;;;;8.15;3.05;;;;;;;20.75;85.65;101125.28;4993851;28;20366;-72
2022/08/04 03:39:44;;;;;;;10.10;2.90;;;;;;;20.79;85.22;101127.16;4992529;28;20041;-72
2022/08/04 03:42:56;;;;;;;10.02;2.72;;;;;;;20.75;85.38;101133.16;4992472;28;20557;-73
2022/08/04 03:45:34;;;;;;;9.05;2.78;;;;;;;20.76;85.64;101134.72;4992500;28;20097;-74
2022/08/04 03:48:12;;;;;;;6.45;3.20;;;;;;;20.72;85.41;101124.72;4993790;28;20034;-73
2022/08/04 03:54:20;;;;;;;7.90;2.90;;;;;;;20.86;84.94;101129.56;4993478;28;20041;-73
2022/08/04 03:57:01;;;;;;;6.38;2.58;;;;;;;20.75;85.07;101131.31;4992253;28;20034;-73
2022/08/04 04:00:02;;;;;;;7.95;2.75;;;;;;;20.71;85.25;101138.09;4992318;28;20022;-73
2022/08/04 04:03:05;;;;;;;6.20;2.65;;;;;;;20.65;86.15;101128.56;4993569;28;20112;-73
2022/08/04 04:06:12;;;;;;;13.80;2.90;;;;;;;20.79;85.71;101127.16;4992328;28;20054;-72
2022/08/04 04:08:58;;;;;;;9.75;3.05;;;;;;;20.78;86.09;101122.94;4993510;28;20277;-73
2022/08/04 04:11:46;;;;;;;8.57;2.83;;;;;;;20.88;85.62;101130.91;4993260;28;20026;-73
2022/08/04 04:14:22;;;;;;;8.40;3.05;;;;;;;20.98;85.26;101132.09;4997297;28;20029;-73
2022/08/04 04:17:07;;;;;;;12.20;3.35;;;;;;;20.80;85.45;101133.19;4997331;28;20489;-74
2022/08/04 04:19:46;;;;;;;10.95;2.80;;;;;;;20.77;85.77;101137.09;4995943;28;20026;-73
2022/08/04 04:22:49;;;;;;;8.60;3.13;;;;;;;20.91;84.98;101130.44;4995763;28;20050;-73
2022/08/04 04:25:39;;;;;;;11.73;3.25;;;;;;;21.02;84.49;101136.59;4997141;28;20379;-73
2022/08/04 04:28:35;;;;;;;10.90;3.10;;;;;;;21.26;83.49;101139.72;4996999;28;20080;-73
2022/08/04 04:31:18;;;;;;;14.80;3.20;;;;;;;21.31;83.79;101134.47;4997049;28;20048;-73
2022/08/04 04:34:06;;;;;;;9.57;2.60;;;;;;;21.31;83.73;101131.06;4996843;28;20030;-73
2022/08/04 04:37:06;;;;;;;14.93;3.17;;;;;;;21.37;83.62;101137.97;4996910;28;20081;-72
2022/08/04 04:39:54;;;;;;;9.15;3.03;;;;;;;21.52;82.79;101137.31;4996938;28;20023;-73
2022/08/04 04:42:35;;;;;;;7.60;2.83;;;;;;;21.51;82.72;101133.09;4996843;28;20026;-73
2022/08/04 04:45:27;;;;;;;9.13;3.38;;;;;;;21.61;82.35;101130.56;4996741;28;20037;-74
2022/08/04 04:48:02;;;;;;;8.48;2.70;;;;;;;21.35;83.75;101116.41;4995357;28;20541;-73
2022/08/04 04:50:51;;;;;;;8.32;2.90;;;;;;;21.52;83.12;101122.34;4996597;28;20030;-72
2022/08/04 04:53:34;;;;;;;7.78;3.00;;;;;;;21.67;82.32;101126.94;4995115;28;20086;-72
2022/08/04 04:56:16;;;;;;;9.68;3.03;;;;;;;21.63;82.57;101129.25;4996545;28;20037;-72
2022/08/04 04:58:41;;;;;;;9.23;3.00;;;;;;;21.78;82.17;101128.59;4995233;28;20022;-73
2022/08/04 05:01:24;;;;;;;8.68;2.85;;;;;;;21.97;81.86;101128.16;4996411;28;20041;-72
2022/08/04 05:03:58;;;;;;;10.52;3.03;;;;;;;22.06;80.87;101132.69;4996373;28;20037;-73
2022/08/04 05:07:06;;;;;;;10.50;3.05;;;;;;;22.11;80.67;101133.78;4996454;28;20030;-73
2022/08/04 05:10:21;;;;;;;8.75;3.20;;;;;;;22.33;79.16;101141.53;4996292;28;20034;-71
2022/08/04 05:13:05;;;;;;;9.70;3.05;;;;;;;22.43;79.82;101141.56;4955222;29;20027;-73
2022/08/04 05:15:34;;;;;;;15.18;2.95;;;;;;;22.34;80.02;101132.59;4955483;29;20439;-73
2022/08/04 05:18:03;;;;;;;11.32;2.95;;;;;;;22.38;79.83;101136.28;4983670;28;20066;-73
2022/08/04 05:20:33;;;;;;;10.98;3.33;;;;;;;22.51;80.01;101138.47;4996017;28;20046;-72
2022/08/04 05:23:07;;;;;;;14.82;3.38;;;;;;;22.52;78.64;101145.28;4995053;28;20121;-72
2022/08/04 05:25:48;;;;;;;10.43;3.13;;;;;;;22.62;79.91;101149.81;4994903;28;20037;-73
2022/08/04 05:28:35;;;;;;;7.57;2.60;;;;;;;22.60;79.17;101150.06;4995957;28;20022;-73
2022/08/04 05:31:07;;;;;;;9.68;2.83;;;;;;;22.69;78.75;101145.88;4995780;28;20022;-73
2022/08/04 05:33:46;;;;;;;8.55;2.92;;;;;;;22.71;76.36;101140.38;4995769;28;20023;-73
2022/08/04 05:36:16;;;;;;;8.95;2.50;;;;;;;22.69;75.98;101132.72;4995756;28;20062;-73
2022/08/04 05:38:43;;;;;;;11.57;2.45;;;;;;;22.67;75.33;101144.56;4995784;28;20141;-73
2022/08/04 05:41:09;;;;;;;9.85;2.47;;;;;;;22.79;74.56;101131.97;4994450;28;20022;-72
2022/08/04 05:43:40;;;;;;;6.32;2.35;;;;;;;22.80;76.83;101143.28;4994330;28;20391;-72
2022/08/04 05:46:06;;;;;;;6.28;2.80;;;;;;;22.79;75.12;101142.50;4994407;28;20048;-72
2022/08/04 05:48:33;;;;;;;7.93;2.50;;;;;;;22.72;75.93;101142.72;4995569;28;20445;-72
2022/08/04 05:51:00;;;;;;;7.35;2.42;;;;;;;22.84;76.05;101142.50;4994252;28;20080;-72
2022/08/04 05:53:27;;;;;;;5.75;2.22;;;;;;;22.80;74.92;101148.56;4995286;28;20037;-73
2022/08/04 05:55:53;;;;;;;7.40;2.58;;;;;;;22.73;75.90;101143.53;4995340;28;20027;-73
2022/08/04 05:58:19;;;;;;;7.03;2.55;;;;;;;22.72;75.94;101141.94;4995335;28;20086;-73
2022/08/04 06:00:45;;;;;;;9.82;2.72;;;;;;;22.68;76.30;101144.31;4995497;28;20030;-73
2022/08/04 06:03:12;;;;;;;9.63;2.58;;;;;;;22.84;75.70;101137.22;4994008;28;20467;-73
2022/08/04 06:05:41;;;;;;;7.70;2.53;;;;;;;22.98;74.42;101140.19;4995392;28;20077;-73
2022/08/04 06:08:06;;;;;;;9.23;2.80;;;;;;;23.11;74.35;101137.06;4993923;28;20516;-73
2022/08/04 06:10:36;;;;;;;7.72;2.72;;;;;;;23.26;73.31;101133.63;4995123;28;20030;-73
2022/08/04 06:13:07;;;;;;;5.75;2.22;;;;;;;23.83;71.21;101139.69;4994968;28;20026;-73
2022/08/04 06:15:38;;;;;;;9.80;2.60;;;;;;;24.30;70.40;101138.50;4994998;28;20098;-73
2022/08/04 06:18:06;;;;;;;8.80;2.70;;;;;;;24.33;68.66;101148.53;4993668;28;20558;-73
2022/08/04 06:20:35;;;;;;;7.43;2.63;;;;;;;23.72;71.10;101143.41;4993473;28;20490;-73
2022/08/04 06:23:04;;;;;;;10.57;2.50;;;;;;;23.59;72.00;101144.69;4993626;28;20032;-73
2022/08/04 06:25:32;;;;;;;7.30;2.40;;;;;;;23.77;72.04;101149.47;4994795;28;20113;-73
2022/08/04 06:28:00;;;;;;;10.30;2.72;;;;;;;23.90;71.27;101157.88;4993321;28;20597;-73
2022/08/04 06:30:29;;;;;;;11.68;2.42;;;;;;;23.91;70.98;101155.00;4994702;28;20026;-72
2022/08/04 06:32:56;;;;;;;10.13;2.55;;;;;;;23.96;70.75;101162.09;4993320;28;20081;-73
2022/08/04 06:35:23;;;;;;;11.77;2.60;;;;;;;24.07;70.51;101155.75;4994312;28;20030;-73
2022/08/04 06:37:50;;;;;;;14.77;2.65;;;;;;;24.19;69.75;101150.94;4994585;28;20533;-73
2022/08/04 06:40:18;;;;;;;7.22;2.60;;;;;;;24.15;70.48;101154.41;4994561;28;20096;-73
2022/08/04 06:42:44;;;;;;;12.57;2.85;;;;;;;23.99;70.91;101161.56;4993322;28;20026;-73
2022/08/04 06:45:11;;;;;;;7.43;2.60;;;;;;;24.04;70.99;101159.69;4994411;28;20030;-73
2022/08/04 06:47:38;;;;;;;11.02;2.45;;;;;;;24.03;71.12;101163.41;4994436;28;20493;-73
2022/08/04 06:50:05;;;;;;;7.68;2.50;;;;;;;24.16;70.63;101163.91;4993021;28;20068;-73
2022/08/04 06:52:30;;;;;;;11.48;2.50;;;;;;;24.26;70.05;101167.31;4992993;28;20068;-73
2022/08/04 06:54:56;;;;;;;14.52;3.03;;;;;;;24.90;68.62;101171.00;4993003;28;20058;-73
2022/08/04 06:57:26;;;;;;;8.38;2.50;;;;;;;25.82;64.72;101180.13;4993085;28;20022;-69
2022/08/04 07:00:10;;;;;;;12.32;2.35;;;;;;;25.12;67.53;101167.97;4994338;28;20177;-69
2022/08/04 07:02:50;;;;;;;9.57;2.33;;;;;;;25.36;67.50;101169.94;4994356;28;20101;-68
2022/08/04 07:05:16;;;;;;;8.25;2.15;;;;;;;26.19;64.71;101176.09;4994137;28;20029;-68
2022/08/04 07:07:44;;;;;;;10.25;2.50;;;;;;;24.99;67.86;101168.56;4992777;28;20033;-69
2022/08/04 07:10:10;;;;;;;9.23;2.40;;;;;;;24.80;68.54;101168.44;4993974;28;20615;-69
2022/08/04 07:12:37;;;;;;;7.47;2.45;;;;;;;24.64;69.99;101166.94;4993799;28;20057;-68
2022/08/04 07:15:04;;;;;;;7.13;2.20;;;;;;;24.79;69.30;101173.97;4994054;28;20033;-69
2022/08/04 07:17:30;;;;;;;10.27;2.38;;;;;;;24.86;68.94;101171.81;4994094;28;20026;-68
2022/08/04 07:19:56;;;;;;;11.00;2.53;;;;;;;24.70;69.84;101179.06;4993850;28;20028;-69
2022/08/04 07:22:23;;;;;;;11.50;2.70;;;;;;;24.80;69.94;101184.31;4993844;28;20541;-70
2022/08/04 07:24:54;;;;;;;6.57;2.17;;;;;;;25.88;66.19;101185.13;4993867;28;20030;-68
2022/08/04 07:27:19;;;;;;;9.43;2.33;;;;;;;25.61;66.49;101188.25;4993886;28;20482;-69
2022/08/04 07:29:46;;;;;;;12.43;2.45;;;;;;;25.69;65.93;101180.78;4992571;28;20029;-69
2022/08/04 07:32:12;;;;;;;15.18;2.42;;;;;;;25.62;65.80;101176.59;4993745;28;20058;-69
2022/08/04 07:34:38;;;;;;;8.77;2.30;;;;;;;25.79;64.93;101186.78;4992398;28;20033;-69
2022/08/04 07:37:03;;;;;;;13.13;2.60;;;;;;;25.62;65.88;101187.19;4993636;28;20030;-68
2022/08/04 07:39:31;;;;;;;9.15;2.25;;;;;;;26.10;63.48;101187.28;5008826;28;20072;-69
2022/08/04 07:41:59;;;;;;;9.43;2.45;;;;;;;25.91;64.92;101183.00;4992354;28;20026;-68
2022/08/04 07:44:25;;;;;;;6.60;2.40;;;;;;;26.13;63.57;101193.88;4992339;28;20077;-68
2022/08/04 07:46:50;;;;;;;7.05;2.38;;;;;;;26.69;61.62;101181.84;4995414;28;20030;-68
2022/08/04 07:49:16;;;;;;;8.25;2.30;;;;;;;26.67;60.88;101195.41;4996483;28;20068;-68
2022/08/04 07:51:42;;;;;;;9.10;2.15;;;;;;;26.64;59.82;101188.00;4997584;28;20371;-69
2022/08/04 07:54:09;;;;;;;6.68;2.20;;;;;;;27.26;58.21;101197.78;4997648;28;20034;-68
2022/08/04 07:56:36;;;;;;;8.70;2.17;;;;;;;27.25;58.87;101191.69;4996269;28;20479;-68
2022/08/04 07:59:03;;;;;;;6.47;2.03;;;;;;;27.72;56.86;101194.38;4996273;28;20113;-69
2022/08/04 08:01:29;;;;;;;8.23;1.90;;;;;;;28.72;54.26;101200.72;4997428;28;20031;-68
2022/08/04 08:03:56;;;;;;;7.82;2.20;;;;;;;29.00;52.88;101195.31;4997489;28;20025;-69
2022/08/04 08:06:23;;;;;;;11.52;2.28;;;;;;;28.15;55.14;101202.91;4996156;28;20391;-68
2022/08/04 08:08:48;;;;;;;7.80;2.13;;;;;;;28.39;54.75;101209.88;4996166;28;20090;-69
2022/08/04 08:11:15;;;;;;;6.78;2.35;;;;;;;28.66;55.11;101204.59;4997303;28;20165;-69
2022/08/04 08:13:40;;;;;;;11.38;2.60;;;;;;;28.82;53.95;101207.69;4997177;28;20022;-68
2022/08/04 08:16:06;;;;;;;8.40;2.13;;;;;;;29.35;52.29;101200.94;4995940;28;20041;-70
2022/08/04 08:18:31;;;;;;;8.27;2.08;;;;;;;29.28;52.21;101204.00;4997113;28;20382;-71
2022/08/04 08:20:57;;;;;;;11.40;2.38;;;;;;;28.73;53.66;101207.59;4996974;28;20046;-70
2022/08/04 08:23:24;;;;;;;8.48;2.40;;;;;;;28.78;53.64;101204.84;4997082;28;20112;-69
2022/08/04 08:25:49;;;;;;;7.78;2.45;;;;;;;29.60;52.16;101210.16;4995662;28;20033;-70
2022/08/04 08:28:16;;;;;;;6.00;1.85;;;;;;;29.75;50.45;101209.81;4996878;28;20034;-69
2022/08/04 08:30:41;;;;;;;14.90;2.58;;;;;;;29.56;50.74;101204.66;4995560;28;20037;-69
2022/08/04 08:33:11;;;;;;;7.65;2.22;;;;;;;29.72;50.43;101213.06;4996819;28;20056;-69
2022/08/04 08:35:52;;;;;;;9.70;2.20;;;;;;;29.50;50.47;101210.41;4995619;28;20023;-69
2022/08/04 08:38:25;;;;;;;10.43;2.45;;;;;;;29.48;51.70;101207.25;4996828;28;20034;-69
2022/08/04 08:41:04;;;;;;;10.48;2.22;;;;;;;29.57;50.57;101194.78;4995433;28;20037;-68
2022/08/04 08:44:01;;;;;;;12.43;2.40;;;;;;;29.34;50.38;101212.66;4996780;28;20061;-69
2022/08/04 08:46:53;;;;;;;5.15;2.03;;;;;;;29.62;48.97;101207.97;4995411;28;20038;-69
2022/08/04 08:50:09;;;;;;;7.38;2.10;;;;;;;29.91;48.92;101210.97;4995294;28;20034;-68
2022/08/04 08:52:55;;;;;;;7.43;2.20;;;;;;;29.78;50.38;101211.03;4955483;29;20054;-68
2022/08/04 08:55:31;;;;;;;11.60;1.88;;;;;;;30.28;48.02;101218.81;4993900;28;20073;-70
2022/08/04 08:58:21;;;;;;;13.23;2.00;;;;;;;30.82;47.74;101215.97;4994838;28;20014;-70
2022/08/04 09:00:49;;;;;;;9.07;2.55;;;;;;;30.44;47.97;101219.97;4996420;28;20113;-69
2022/08/04 09:03:37;;;;;;;7.07;2.22;;;;;;;30.51;47.51;101222.94;4995113;28;20050;-69
2022/08/04 09:06:25;;;;;;;9.25;1.90;;;;;;;30.41;47.59;101217.88;4996405;28;20500;-69
2022/08/04 09:09:05;;;;;;;9.13;2.30;;;;;;;30.92;46.69;101220.97;4996242;28;20033;-69
2022/08/04 09:11:47;;;;;;;6.10;1.80;;;;;;;29.49;49.16;101230.13;4996173;28;20081;-69
2022/08/04 09:14:33;;;;;;;;;;;;;;;30.09;48.68;101229.69;4996549;28;20027;-69
2022/08/04 09:17:06;;;;;;;8.18;2.10;;;;;;;29.47;49.76;101225.13;4994871;28;19909;-70
2022/08/04 09:19:44;;;;;;;5.22;1.88;;;;;;;29.12;50.81;101227.53;4996092;28;20524;-69
2022/08/04 09:22:49;;;;;;;7.43;2.20;;;;;;;28.87;51.06;101236.06;4994467;28;20046;-69
2022/08/04 09:25:33;;;;;;;8.98;2.00;;;;;;;28.90;50.79;101232.78;4963300;28;20031;-70
2022/08/04 09:28:03;;;;;;;5.03;1.88;;;;;;;29.83;48.99;101229.56;4995943;28;20034;-69
2022/08/04 09:30:46;;;;;;;10.50;2.20;;;;;;;30.39;47.08;101232.66;4994612;28;20033;-68
2022/08/04 09:33:23;;;;;;;;;;;;;;;30.35;46.54;101230.59;4994850;28;20038;-68
2022/08/04 09:36:02;;;;;;;7.53;2.13;;;;;;;29.94;46.89;101235.41;4995817;28;19918;-68
2022/08/04 09:38:45;;;;;;;7.28;2.42;;;;;;;30.41;45.24;101223.22;4994425;28;20061;-68
2022/08/04 09:41:35;;;;;;;10.20;2.20;;;;;;;30.33;45.67;101227.44;4995656;28;20030;-68
2022/08/04 09:44:39;;;;;;;7.47;2.00;;;;;;;30.04;46.56;101235.16;4995592;28;20022;-69
2022/08/04 09:47:19;;;;;;;7.68;2.25;;;;;;;30.58;44.75;101228.59;4994509;28;20561;-68
2022/08/04 09:50:16;;;;;;;9.38;2.20;;;;;;;30.04;45.34;101240.50;4995618;28;20041;-69
2022/08/04 09:52:58;;;;;;;6.18;2.30;;;;;;;29.38;47.73;101245.56;4995426;28;20160;-69
2022/08/04 09:55:38;;;;;;;10.20;2.73;;;;;;;29.44;47.32;101239.03;4995409;28;20026;-69
2022/08/04 09:58:38;;;;;;;10.35;2.30;;;;;;;28.99;47.75;101245.06;4994015;28;20026;-69
2022/08/04 10:01:12;;;;;;;6.80;2.13;;;;;;;28.91;47.33;101247.66;4994722;28;20525;-68
2022/08/04 10:03:47;;;;;;;7.60;2.15;;;;;;;28.74;47.06;101251.75;4995389;28;20019;-69
2022/08/04 10:06:50;;;;;;;6.05;2.17;;;;;;;28.54;48.39;101260.13;4995245;28;20049;-69
2022/08/04 10:09:38;;;;;;;9.77;2.30;;;;;;;28.78;47.37;101267.88;4993206;28;20125;-68
2022/08/04 10:12:27;;;;;;;6.65;2.30;;;;;;;28.47;47.18;101271.16;4993740;28;20029;-68
2022/08/04 10:15:19;;;;;;;11.07;1.95;;;;;;;28.19;47.77;101274.84;4994988;28;20030;-67
2022/08/04 10:17:53;;;;;;;9.98;1.90;;;;;;;28.18;48.11;101276.72;4994913;28;20026;-69
2022/08/04 10:20:39;;;;;;;6.28;1.65;;;;;;;28.03;48.07;101263.72;4993380;28;20457;-70
2022/08/04 10:23:11;;;;;;;9.63;1.90;;;;;;;27.74;48.70;101255.94;4994791;28;20026;-69
2022/08/04 10:25:58;;;;;;;6.80;1.92;;;;;;;27.72;48.48;101282.78;4993478;28;20026;-68
2022/08/04 10:28:25;;;;;;;5.18;1.80;;;;;;;27.42;48.94;101284.06;4994839;28;20026;-69
2022/08/04 10:30:56;;;;;;;4.32;1.50;;;;;;;27.48;48.44;101293.50;4994844;28;20033;-69
2022/08/04 10:33:31;;;;;;;5.32;1.60;;;;;;;27.57;48.60;101283.81;5009756;28;20026;-69
2022/08/04 10:36:03;;;;;;;3.15;1.42;;;;;;;27.57;48.42;101301.59;4993354;28;20030;-70
2022/08/04 10:39:17;;;;;;;3.95;1.50;;;;;;;27.34;48.38;101293.44;4994593;28;20027;-69
2022/08/04 10:41:52;;;;;;;7.07;1.50;;;;;;;27.33;48.41;101286.53;4985902;28;20121;-69
2022/08/04 10:44:29;;;;;;;4.50;1.67;;;;;;;27.21;48.91;101299.44;4993160;28;20441;-68
2022/08/04 10:46:58;;;;;;;5.97;1.63;;;;;;;27.42;48.39;101294.66;4993193;28;20390;-69
2022/08/04 10:49:40;;;;;;;3.47;1.35;;;;;;;27.43;49.61;101309.50;4994400;28;20110;-68
2022/08/04 10:52:32;;;;;;;3.08;1.50;;;;;;;27.26;49.15;101306.56;4994239;28;20044;-68
2022/08/04 10:55:17;;;;;;;7.97;1.50;;;;;;;27.15;50.40;101295.25;4994245;28;20046;-69
2022/08/04 10:57:46;;;;;;;4.25;1.60;;;;;;;26.76;49.73;101309.56;4994324;28;20030;-69
2022/08/04 11:00:22;;;;;;;3.97;1.42;;;;;;;26.82;49.59;101315.59;4994266;28;20432;-68
2022/08/04 11:03:02;;;;;;;4.60;1.55;;;;;;;27.02;49.64;101310.03;4994112;28;20080;-70
2022/08/04 11:05:38;;;;;;;3.75;1.65;;;;;;;27.32;48.39;101322.13;4994150;28;20042;-68
2022/08/04 11:08:10;;;;;;;5.47;1.80;;;;;;;27.39;47.96;101317.25;4992793;28;20026;-69
2022/08/04 11:10:42;;;;;;;5.15;1.45;;;;;;;27.41;48.93;101312.44;4993959;28;20466;-68
2022/08/04 11:13:10;;;;;;;;;;;;;;;28.02;47.29;101317.91;4994267;28;20042;-68
2022/08/04 11:15:40;;;;;;;4.32;1.50;;;;;;;28.32;47.20;101311.28;4992798;28;19964;-68
2022/08/04 11:18:15;;;;;;;4.10;1.65;;;;;;;28.26;46.30;101320.44;4994043;28;20026;-69
2022/08/04 11:20:52;;;;;;;4.63;1.40;;;;;;;28.64;45.57;101323.72;4993723;28;20042;-70
2022/08/04 11:23:22;;;;;;;4.07;1.65;;;;;;;28.75;45.89;101324.31;4992654;28;20474;-69
2022/08/04 11:25:55;;;;;;;6.53;1.65;;;;;;;29.48;44.64;101325.19;4993717;28;20081;-69
2022/08/04 11:28:39;;;;;;;4.03;1.40;;;;;;;30.86;41.14;101328.94;4992531;28;20482;-69
2022/08/04 11:31:29;;;;;;;5.90;1.55;;;;;;;31.31;39.28;101331.34;4992553;28;20018;-69
2022/08/04 11:34:20;;;;;;;3.40;1.23;;;;;;;31.60;39.53;101323.50;4993638;28;20125;-68
2022/08/04 11:37:25;;;;;;;4.50;1.40;;;;;;;30.74;40.63;101318.84;4992410;28;20033;-69
2022/08/04 11:39:59;;;;;;;3.97;1.50;;;;;;;30.63;41.21;101318.34;4992429;28;20160;-69
2022/08/04 11:42:33;;;;;;;2.80;1.40;;;;;;;31.43;39.87;101316.28;4992396;28;20053;-69
2022/08/04 11:45:05;;;;;;;3.42;1.38;;;;;;;31.11;40.22;101317.53;4992406;28;20039;-69
2022/08/04 11:47:53;;;;;;;;;;;;;;;31.05;40.22;101316.09;4992719;28;20029;-68
2022/08/04 11:50:28;;;;;;;4.65;1.45;;;;;;;31.23;40.26;101311.56;4990677;28;19980;-70
2022/08/04 11:52:56;;;;;;;4.97;1.60;;;;;;;30.43;42.28;101305.56;4993542;28;20098;-68
2022/08/04 11:55:25;;;;;;;3.28;1.42;;;;;;;31.15;40.54;101302.44;4992340;28;20054;-68
2022/08/04 11:57:51;;;;;;;5.35;1.40;;;;;;;31.09;40.64;101300.25;4992246;28;20120;-69
2022/08/04 12:00:18;;;;;;;3.60;1.50;;;;;;;31.42;39.73;101309.41;4993564;28;20119;-68
2022/08/04 12:03:05;;;;;;;4.88;1.30;;;;;;;31.84;39.08;101311.53;4993493;28;20022;-69
2022/08/04 12:05:34;;;;;;;6.30;1.60;;;;;;;31.57;40.10;101312.69;4993559;28;20058;-69
2022/08/04 12:08:25;;;;;;;5.05;1.70;;;;;;;31.14;40.03;101308.88;5008689;28;20121;-68
2022/08/04 12:11:25;;;;;;;3.60;1.60;;;;;;;31.73;39.55;101308.41;4992177;28;20057;-69
2022/08/04 12:14:25;;;;;;;3.38;1.52;;;;;;;31.47;39.02;101301.19;4993344;28;20030;-68
2022/08/04 12:17:02;;;;;;;5.18;1.70;;;;;;;31.00;40.13;101311.69;4992152;28;20117;-69
2022/08/04 12:19:37;;;;;;;3.78;1.73;;;;;;;31.29;39.55;101312.97;4993271;28;20027;-68